Latest Weather Observations for Bundaberg

IDQ60801

Issued at 6:35 pm EST Monday 21 April 2014 (issued every 30 minutes, with the page automatically refreshed every 10 minutes)

About weather observations | Map of weather stations | Latest weather observations for QLD | Other Formats
Station Details ID: 039128 Name: BUNDABERG AERO Lat: -24.91 Lon: 152.32 Height: 30.82 m
Data from the previous 72 hours. | See also: Recent months at Bundaberg
Date/Time
EST
Temp
°C
App
Temp
°C
Dew
Point
Rel
Hum
%
Delta-T
°C
Wind Press
QNH
hPa
Press
MSL
hPa
Rain
since 9 am
mm
Dir
 
Spd
km/h
Gust
km/h
Spd
kts
Gust
kts
21/06:30pm 21.8 22.2 15.4 67 3.8 ENE 7 9 4 5 1019.3 - 0.0
21/06:00pm 22.6 23.0 15.4 64 4.3 ENE 7 9 4 5 1019.1 1019.0 0.0
21/05:30pm 23.0 22.2 15.1 61 4.7 NE 13 19 7 10 1018.9 - 0.0
21/05:00pm 24.4 23.0 14.5 54 5.9 ENE 15 22 8 12 1018.6 - 0.0
21/04:30pm 25.4 22.9 13.6 48 6.9 ENE 19 24 10 13 1018.3 - 0.0
21/04:00pm 26.1 23.3 13.2 44 7.6 E 20 28 11 15 1018.2 - 0.0
21/03:30pm 26.6 23.8 13.3 43 7.8 E 20 26 11 14 1018.2 - 0.0
21/03:00pm 26.9 24.8 13.6 44 7.9 E 17 26 9 14 1018.2 1018.1 0.0
21/02:30pm 27.0 25.1 13.0 42 8.2 E 15 24 8 13 1018.2 - 0.0
21/02:00pm 27.3 24.6 12.9 41 8.4 ENE 19 32 10 17 1018.3 - 0.0
21/01:30pm 27.6 25.2 12.8 40 8.7 E 17 26 9 14 1018.5 - 0.0
21/01:00pm 27.0 24.7 13.0 42 8.2 ENE 17 24 9 13 1018.9 - 0.0
21/12:30pm 27.4 25.9 14.1 44 7.9 E 15 28 8 15 1019.1 - 0.0
21/12:00pm 26.4 25.2 13.9 46 7.4 E 13 17 7 9 1019.5 1019.4 0.0
21/11:30am 27.2 26.0 13.9 44 7.9 ESE 13 20 7 11 1019.9 - 0.0
21/11:00am 27.1 26.2 14.8 47 7.4 E 13 20 7 11 1020.2 - 0.0
21/10:30am 26.6 25.9 13.3 43 7.8 ENE 9 19 5 10 1020.6 - 0.0
21/10:00am 26.2 25.9 14.3 48 7.1 NE 9 19 5 10 1020.7 - 0.0
21/09:30am 25.7 26.9 16.0 55 5.9 NE 4 9 2 5 1020.7 - 0.0
21/09:00am 23.8 25.1 17.5 68 3.9 SE 7 9 4 5 1020.7 1020.6 0.0
21/08:30am 22.1 23.5 17.7 76 2.7 S 7 9 4 5 1020.7 - 0.0
21/08:00am 20.7 21.8 17.1 80 2.2 S 7 9 4 5 1020.6 - 0.0
21/07:30am 18.5 18.3 15.7 84 1.7 S 11 13 6 7 1020.4 - 0.0
21/07:00am 17.2 16.9 15.4 89 1.1 S 11 15 6 8 1020.1 - 0.0
21/06:30am 16.0 15.8 14.7 92 0.7 S 9 13 5 7 1019.9 - 0.0
21/06:00am 15.3 16.3 14.3 94 0.6 SSE 2 9 1 5 1019.5 1019.4 0.0
21/05:30am 15.4 16.3 14.1 92 0.7 SSW 2 7 1 4 1019.1 - 0.0
21/05:00am 15.9 16.3 14.8 93 0.6 SSW 6 9 3 5 1019.0 - 0.0
21/04:30am 16.0 16.3 14.9 93 0.6 S 7 9 4 5 1018.7 - 0.0
21/04:00am 15.8 16.6 14.7 93 0.6 SSW 4 7 2 4 1018.5 - 0.0
21/03:30am 15.7 16.4 14.4 92 0.7 S 4 7 2 4 1018.3 - 0.0
21/03:00am 15.7 16.0 14.4 92 0.7 SSW 6 9 3 5 1018.1 1018.0 0.0
21/02:30am 16.0 16.4 14.7 92 0.7 S 6 7 3 4 1018.1 - 0.0
21/02:00am 16.3 16.7 15.2 93 0.6 S 7 9 4 5 1018.1 - 0.0
21/01:30am 16.2 17.8 14.9 92 0.7 CALM 0 0 0 0 1018.2 - 0.0
21/01:00am 16.4 18.1 15.1 92 0.8 CALM 0 0 0 0 1018.2 - 0.0
21/12:30am 16.6 18.4 15.5 93 0.6 CALM 0 0 0 0 1018.4 - 0.0
21/12:00am 16.9 18.0 15.6 92 0.8 S 4 7 2 4 1018.6 1018.5 0.0
 
Date/Time
EST
Temp
°C
App
Temp
°C
Dew
Point
Rel
Hum
%
Delta-T
°C
Wind Press
QNH
hPa
Press
MSL
hPa
Rain
since 9 am
mm
Dir
 
Spd
km/h
Gust
km/h
Spd
kts
Gust
kts
20/11:30pm 17.0 18.9 15.7 92 0.8 CALM 0 0 0 0 1018.7 - 0.0
20/11:00pm 17.1 18.8 15.3 89 1.0 CALM 0 0 0 0 1018.7 - 0.0
20/10:30pm 17.6 19.6 15.9 90 1.0 CALM 0 0 0 0 1018.8 - 0.0
20/10:00pm 17.5 19.4 15.8 90 1.0 CALM 0 0 0 0 1018.8 - 0.0
20/09:30pm 17.6 19.4 15.6 88 1.2 CALM 0 0 0 0 1018.9 - 0.0
20/09:00pm 18.4 20.4 16.0 86 1.4 CALM 0 0 0 0 1018.7 1018.6 0.0
20/08:30pm 18.9 20.9 16.1 84 1.7 CALM 0 0 0 0 1018.6 - 0.0
20/08:00pm 19.5 21.6 16.2 81 2.0 CALM 0 6 0 3 1018.2 - 0.0
20/07:30pm 19.9 22.0 16.3 80 2.2 CALM 0 0 0 0 1017.9 - 0.0
20/07:00pm 20.5 21.4 16.1 76 2.6 NNE 6 7 3 4 1017.7 - 0.0
20/06:30pm 21.9 22.6 16.2 70 3.4 N 7 9 4 5 1017.1 - 0.0
20/06:00pm 22.6 23.0 16.4 68 3.8 N 9 13 5 7 1016.9 1016.7 0.0
20/05:30pm 23.5 22.8 15.5 60 4.8 N 13 17 7 9 1016.5 - 0.0
20/05:00pm 24.9 22.6 13.1 48 6.9 N 17 20 9 11 1016.4 - 0.0
20/04:30pm 25.7 22.7 12.5 44 7.6 N 20 24 11 13 1016.1 - 0.0
20/04:00pm 26.3 22.6 11.6 40 8.4 NNE 22 28 12 15 1015.8 - 0.0
20/03:30pm 26.5 23.4 13.3 44 7.8 NNE 22 28 12 15 1015.6 - 0.0
20/03:00pm 27.3 23.8 12.1 39 8.8 NNE 22 28 12 15 1015.4 1015.2 0.0
20/02:30pm 27.1 24.6 12.3 39 8.6 NE 17 24 9 13 1015.4 - 0.0
20/02:00pm 27.4 27.6 11.8 38 9.0 E 2 11 1 6 1015.5 - 0.0
20/01:30pm 26.4 26.1 11.3 39 8.6 SE 4 9 2 5 1015.6 - 0.0
20/01:00pm 27.8 26.5 11.4 36 9.4 ESE 9 19 5 10 1015.9 - 0.0
20/12:30pm 28.0 26.7 12.4 38 9.1 N 11 15 6 8 1016.4 - 0.0
20/12:00pm 27.6 27.0 12.4 39 8.8 NW 7 22 4 12 1016.8 1016.6 0.0
20/11:30am 27.2 26.4 12.8 41 8.4 NNW 9 17 5 9 1017.5 - 0.0
20/11:00am 26.4 26.7 16.0 52 6.4 N 9 15 5 8 1017.8 - 0.0
20/10:30am 25.5 26.0 16.6 58 5.5 NNW 9 13 5 7 1018.2 - 0.0
20/10:00am 24.7 25.7 16.9 62 4.8 NW 7 11 4 6 1018.3 - 0.0
20/09:30am 22.9 23.6 15.7 64 4.3 SSW 6 9 3 5 1018.4 - 0.0
20/09:00am 21.2 21.5 15.1 68 3.6 SW 7 11 4 6 1018.5 1018.4 0.0
20/08:30am 19.5 19.3 14.7 74 2.8 S 9 11 5 6 1018.2 - 0.0
20/08:00am 18.0 17.8 14.7 81 1.9 SSW 9 15 5 8 1018.0 - 0.0
20/07:30am 17.0 16.8 14.6 86 1.4 SSW 9 11 5 6 1017.6 - 0.0
20/07:00am 15.6 16.7 14.5 93 0.6 W 2 7 1 4 1017.2 - 0.0
20/06:30am 13.5 13.5 12.4 93 0.6 SSW 4 6 2 3 1017.0 - 0.0
20/06:00am 13.8 13.6 12.9 94 0.5 SSE 6 9 3 5 1016.6 1016.4 0.0
20/05:30am 13.8 14.6 12.5 92 0.7 CALM 0 0 0 0 1016.3 - 0.0
20/05:00am 14.1 15.0 12.8 92 0.7 CALM 0 0 0 0 1016.0 - 0.0
20/04:30am 14.5 15.6 13.4 93 0.6 CALM 0 0 0 0 1015.8 - 0.0
20/04:00am 14.4 15.4 13.1 92 0.7 CALM 0 0 0 0 1015.6 - 0.0
20/03:30am 14.4 14.3 13.3 93 0.6 SW 6 7 3 4 1015.6 - 0.0
20/03:00am 14.2 15.1 12.8 91 0.8 CALM 0 0 0 0 1015.6 1015.4 0.0
20/02:30am 15.1 14.7 14.0 93 0.6 SSW 9 13 5 7 1015.6 - 0.0
20/02:00am 15.0 15.7 13.5 91 0.8 SE 2 6 1 3 1015.6 - 0.0
20/01:30am 15.1 15.3 13.1 88 1.1 SE 4 7 2 4 1015.8 - 0.0
20/01:00am 15.6 15.5 13.4 87 1.2 SSE 6 7 3 4 1015.9 - 0.0
20/12:30am 15.9 15.4 13.7 87 1.2 ESE 9 11 5 6 1016.0 - 0.0
20/12:00am 16.5 16.2 14.3 87 1.3 SSE 9 15 5 8 1016.1 1015.9 0.0
 
Date/Time
EST
Temp
°C
App
Temp
°C
Dew
Point
Rel
Hum
%
Delta-T
°C
Wind Press
QNH
hPa
Press
MSL
hPa
Rain
since 9 am
mm
Dir
 
Spd
km/h
Gust
km/h
Spd
kts
Gust
kts
19/11:30pm 16.5 16.6 14.0 85 1.4 SSE 6 9 3 5 1016.3 - 0.0
19/11:00pm 18.2 18.2 15.3 83 1.7 W 9 13 5 7 1016.3 - 0.0
19/10:30pm 17.2 16.1 14.3 83 1.7 WNW 13 15 7 8 1016.3 - 0.0
19/10:00pm 17.6 16.6 14.5 82 1.8 WNW 13 15 7 8 1016.3 - 0.0
19/09:30pm 17.6 16.8 14.1 80 2.0 NW 11 15 6 8 1016.3 - 0.0
19/09:00pm 17.8 17.1 14.3 80 2.0 NW 11 11 6 6 1016.3 1016.1 0.0
19/08:30pm 17.6 16.5 14.3 81 1.9 NW 13 13 7 7 1016.1 - 0.0
19/08:00pm 18.8 18.7 13.9 73 2.8 NW 7 9 4 5 1016.0 - 0.0
19/07:30pm 18.9 18.9 14.2 74 2.7 NW 7 9 4 5 1015.7 - 0.0
19/07:00pm 18.5 18.1 14.0 75 2.6 NW 9 11 5 6 1015.3 - 0.0
19/06:30pm 20.0 19.5 13.7 67 3.6 NNW 9 9 5 5 1014.9 - 0.0
19/06:00pm 22.0 21.8 13.6 59 4.9 NNE 7 9 4 5 1014.6 1014.4 0.0
19/05:30pm 23.4 21.8 12.7 51 6.1 NNE 13 15 7 8 1014.4 - 0.0
19/05:00pm 24.9 22.2 11.8 44 7.5 NNE 17 20 9 11 1014.1 - 0.0
19/04:30pm 27.6 25.7 9.0 31 10.2 W 9 13 5 7 1013.8 - 0.0
19/04:00pm 27.9 25.4 8.2 29 10.7 WSW 11 17 6 9 1013.6 - 0.0
19/03:30pm 27.9 24.6 6.6 26 11.3 WSW 13 19 7 10 1013.6 - 0.0
19/03:00pm 28.3 24.5 5.8 24 11.8 W 15 20 8 11 1013.7 1013.5 0.0
19/02:30pm 28.4 24.2 7.6 27 11.2 W 19 22 10 12 1013.8 - 0.0
19/02:00pm 28.5 25.5 7.7 27 11.2 W 13 20 7 11 1013.9 - 0.0
19/01:30pm 28.1 24.9 8.4 29 10.8 WSW 15 20 8 11 1014.1 - 0.0
19/01:00pm 28.3 27.0 10.0 32 10.3 SSW 7 15 4 8 1014.4 - 0.0
19/12:30pm 27.4 24.9 8.3 30 10.4 SW 11 19 6 10 1014.9 - 0.0
19/12:00pm 27.7 26.5 10.4 34 9.7 NNW 7 19 4 10 1015.4 1015.2 0.0
19/11:30am 26.9 24.3 7.9 30 10.2 SSW 11 17 6 9 1016.1 - 0.0
19/11:00am 26.7 24.2 8.2 31 10.0 SSW 11 20 6 11 1016.6 - 0.0
19/10:30am 26.5 23.4 8.9 33 9.6 S 15 22 8 12 1017.0 - 0.0
19/10:00am 25.4 22.2 8.4 34 9.1 S 15 22 8 12 1017.4 - 0.0
19/09:30am 24.6 21.9 9.0 37 8.4 SSW 13 19 7 10 1017.6 - 0.0
19/09:00am 23.6 21.8 12.0 48 6.6 SSW 13 19 7 10 1017.7 1017.5 0.0
19/08:30am 21.6 19.5 11.3 52 5.7 SW 13 17 7 9 1017.7 - 0.0
19/08:00am 19.9 17.8 11.1 57 4.8 SW 13 19 7 10 1017.5 - 0.0
19/07:30am 18.3 15.7 10.7 61 4.1 SW 15 19 8 10 1017.4 - 0.0
19/07:00am 16.7 14.0 10.5 67 3.3 SW 15 19 8 10 1017.1 - 0.0
19/06:30am 15.5 13.1 11.3 76 2.3 SW 15 19 8 10 1016.9 - 0.0
19/06:00am 14.4 12.6 12.1 86 1.2 WSW 13 15 7 8 1016.6 1016.4 0.0
19/05:30am 13.6 12.3 12.5 93 0.6 WSW 11 13 6 7 1016.5 - 0.0
19/05:00am 13.5 13.8 12.2 92 0.7 SW 2 7 1 4 1016.2 - 0.0
19/04:30am 14.0 14.7 12.2 89 1.0 CALM 0 0 0 0 1016.1 - 0.0
19/04:00am 14.6 14.3 12.6 88 1.1 WSW 6 7 3 4 1016.0 - 0.0
19/03:30am 15.6 15.3 13.3 86 1.3 WSW 7 11 4 6 1016.0 - 0.0
19/03:00am 16.0 16.4 15.2 95 0.5 WSW 7 9 4 5 1016.0 1015.8 0.0
19/02:30am 15.0 14.5 13.9 93 0.6 WNW 9 11 5 6 1016.2 - 0.0
19/02:00am 15.6 15.7 14.5 93 0.6 WNW 7 9 4 5 1016.1 - 0.0
19/01:30am 16.1 17.7 14.8 92 0.7 CALM 0 0 0 0 1016.2 - 0.0
19/01:00am 16.5 16.9 15.4 93 0.6 SW 7 7 4 4 1016.3 - 0.0
19/12:30am 16.5 17.8 15.2 92 0.8 S 2 13 1 7 1016.5 - 0.0
19/12:00am 17.2 19.0 15.4 89 1.1 CALM 0 0 0 0 1016.5 1016.3 0.0
 
Date/Time
EST
Temp
°C
App
Temp
°C
Dew
Point
Rel
Hum
%
Delta-T
°C
Wind Press
QNH
hPa
Press
MSL
hPa
Rain
since 9 am
mm
Dir
 
Spd
km/h
Gust
km/h
Spd
kts
Gust
kts
18/11:30pm 17.2 17.9 15.5 90 1.0 S 6 7 3 4 1016.5 - 0.0
18/11:00pm 18.1 20.1 15.9 87 1.3 CALM 0 0 0 0 1016.5 - 0.0
18/10:30pm 18.2 20.0 15.6 85 1.5 CALM 0 0 0 0 1016.5 - 0.0
18/10:00pm 18.7 20.7 16.1 85 1.5 CALM 0 0 0 0 1016.6 - 0.0
18/09:30pm 18.6 20.2 14.9 79 2.2 CALM 0 0 0 0 1016.4 - 0.0
18/09:00pm 20.0 20.8 15.8 77 2.5 WNW 6 7 3 4 1016.5 1016.3 0.0
18/08:30pm 19.6 19.9 14.6 73 2.9 NNW 6 6 3 3 1016.3 - 0.0
18/08:00pm 20.0 20.2 14.1 69 3.4 N 6 7 3 4 1016.1 - 0.0
18/07:30pm 20.0 19.6 14.1 69 3.4 N 9 13 5 7 1015.9 - 0.0
18/07:00pm 20.9 22.0 13.6 63 4.2 CALM 0 0 0 0 1015.5 - 0.0

Other Formats:

Comma delimited format used in spreadsheet applications
http://www.bom.gov.au/fwo/IDQ60801/IDQ60801.94387.axf

JavaScript Object Notation format (JSON) in row-major order
http://www.bom.gov.au/fwo/IDQ60801/IDQ60801.94387.json